Time;durP1;ratioP1;P1;durP2;ratioP2;P2;SDS_P1;SDS_P2;PMS_P1;PMS_P2;Temp;Humidity;BMP_temperature;BMP_pressure;BME280_temperature;BME280_humidity;BME280_pressure;Samples;Min_cycle;Max_cycle;Signal;HPM_P1;HPM_P2
2023/01/21 00:01:19;;;;;;;48.67;31.67;;;-0.40;92.40;;;-1.48;79.50;101891.81;5030198;28;20667;-73
2023/01/21 00:03:47;;;;;;;47.30;31.10;;;-0.50;92.10;;;-1.50;80.17;101896.25;5030340;28;20207;-74
2023/01/21 00:06:17;;;;;;;46.53;32.07;;;-0.50;92.30;;;-1.51;80.74;101899.81;5029969;28;20230;-73
2023/01/21 00:08:45;;;;;;;47.77;30.77;;;-0.50;92.40;;;-1.52;81.37;101898.09;5030291;28;20223;-73
2023/01/21 00:11:15;;;;;;;50.37;31.77;;;-0.50;92.50;;;-1.52;80.96;101900.72;5030409;28;20482;-72
2023/01/21 00:13:44;;;;;;;47.63;31.70;;;-0.60;92.50;;;-1.55;80.36;101915.69;5029999;28;20210;-73
2023/01/21 00:16:13;;;;;;;48.57;30.47;;;-0.50;92.40;;;-1.57;80.53;101911.38;5029739;28;20207;-72
2023/01/21 00:18:42;;;;;;;48.13;30.53;;;-0.60;92.30;;;-1.58;80.21;101923.66;5029666;28;20234;-72
2023/01/21 00:21:10;;;;;;;49.73;31.43;;;-0.60;92.20;;;-1.59;80.79;101918.47;5029476;28;20206;-73
2023/01/21 00:23:40;;;;;;;44.10;30.20;;;-0.60;92.10;;;-1.61;80.85;101923.75;5029638;28;20686;-73
2023/01/21 00:26:11;;;;;;;46.30;29.87;;;-0.60;92.20;;;-1.63;80.08;101930.84;5029535;28;20229;-73
2023/01/21 00:28:42;;;;;;;48.87;31.33;;;-0.60;92.20;;;-1.59;79.85;101935.06;5029887;28;20227;-73
2023/01/21 00:31:12;;;;;;;49.30;32.30;;;-0.60;92.20;;;-1.60;80.06;101938.59;5029462;28;20723;-73
2023/01/21 00:33:40;;;;;;;46.17;30.77;;;-0.50;91.90;;;-1.64;79.61;101942.25;5028341;28;20687;-73
2023/01/21 00:36:12;;;;;;;48.90;31.33;;;-0.60;91.90;;;-1.63;80.08;101951.84;5029728;28;20363;-73
2023/01/21 00:38:42;;;;;;;47.17;32.13;;;-0.60;92.10;;;-1.78;80.08;101948.91;5029402;28;20650;-73
2023/01/21 00:41:13;;;;;;;48.70;31.07;;;-0.80;92.00;;;-1.85;81.51;101955.25;5029832;28;20218;-73
2023/01/21 00:43:42;;;;;;;45.10;30.70;;;-0.80;92.70;;;-1.83;81.61;101950.81;5029172;28;20245;-73
2023/01/21 00:46:11;;;;;;;51.67;32.30;;;-0.80;92.80;;;-1.86;81.00;101946.53;5027650;28;20206;-73
2023/01/21 00:48:41;;;;;;;50.83;32.77;;;-0.80;92.80;;;-1.85;81.57;101948.22;5029294;28;20222;-73
2023/01/21 00:51:10;;;;;;;48.50;32.83;;;-0.80;93.00;;;-1.84;81.72;101952.56;5029509;28;20230;-71
2023/01/21 00:53:41;;;;;;;50.17;32.03;;;-0.80;92.90;;;-1.80;81.69;101948.94;5029378;28;20676;-73
2023/01/21 00:56:13;;;;;;;48.77;32.03;;;-0.70;92.80;;;-1.82;81.51;101956.03;5029059;28;20691;-73
2023/01/21 00:58:43;;;;;;;51.73;32.37;;;-0.70;92.50;;;-1.86;80.98;101954.41;5029167;28;20852;-73
2023/01/21 01:01:14;;;;;;;50.63;32.50;;;-0.80;92.60;;;-1.81;80.18;101956.84;5029262;28;20294;-73
2023/01/21 01:03:43;;;;;;;46.93;31.87;;;-0.80;92.30;;;-1.89;81.41;101965.00;5029535;28;20209;-73
2023/01/21 01:06:14;;;;;;;45.97;30.10;;;-0.90;92.50;;;-1.88;80.84;101971.13;5028928;28;20211;-73
2023/01/21 01:08:45;;;;;;;49.67;31.57;;;-0.90;92.50;;;-1.94;80.26;101972.16;5029345;28;20226;-73
2023/01/21 01:11:14;;;;;;;45.97;30.47;;;-0.90;92.30;;;-1.92;80.54;101978.25;5029328;28;20206;-73
2023/01/21 01:13:43;;;;;;;45.27;30.13;;;-0.90;92.70;;;-1.92;81.03;101978.25;5029268;28;20230;-72
2023/01/21 01:16:17;;;;;;;44.07;29.83;;;-0.90;92.40;;;-1.99;81.11;101981.09;5029058;28;20215;-73
2023/01/21 01:18:46;;;;;;;51.97;31.17;;;-1.00;92.50;;;-2.01;81.21;101994.28;5028801;28;20261;-73
2023/01/21 01:21:17;;;;;;;45.70;31.43;;;-1.00;92.60;;;-2.01;81.45;101996.88;5029207;28;20207;-73
2023/01/21 01:23:48;;;;;;;51.57;32.00;;;-1.00;92.70;;;-2.06;81.89;102001.44;5029254;28;20214;-72
2023/01/21 01:26:18;;;;;;;50.60;32.40;;;-1.00;93.00;;;-2.05;82.65;102005.75;5029172;28;20207;-73
2023/01/21 01:28:46;;;;;;;53.07;31.90;;;-1.00;93.10;;;-2.03;82.50;102006.59;5029083;28;20223;-73
2023/01/21 01:31:17;;;;;;;50.60;31.17;;;-1.00;93.20;;;-2.03;82.71;102017.09;5028888;28;20588;-73
2023/01/21 01:33:46;;;;;;;52.23;32.07;;;-0.90;93.20;;;-2.05;83.10;102014.50;5028599;28;20206;-72
2023/01/21 01:36:17;;;;;;;51.17;31.60;;;-0.90;93.20;;;-2.05;82.32;102016.25;5028700;28;20207;-73
2023/01/21 01:38:47;;;;;;;48.37;30.87;;;-0.90;93.40;;;-1.98;83.23;102030.91;5029386;28;20230;-73
2023/01/21 01:41:18;;;;;;;52.97;31.37;;;-0.90;93.30;;;-2.05;82.89;102025.00;5029277;28;20202;-73
2023/01/21 01:44:00;;;;;;;47.40;30.77;;;-0.90;93.40;;;-2.04;83.39;102036.34;5028876;28;20218;-73
2023/01/21 01:46:30;;;;;;;47.43;30.00;;;-0.90;93.70;;;-2.06;83.44;102039.03;5031555;28;20741;-72
2023/01/21 01:49:07;;;;;;;50.33;31.43;;;-1.00;93.80;;;-2.02;83.81;102045.03;5032801;28;20230;-73
2023/01/21 01:51:46;;;;;;;50.63;30.67;;;-0.90;93.80;;;-2.08;83.51;102045.22;5033058;28;20217;-73
2023/01/21 01:54:23;;;;;;;49.13;29.57;;;-1.00;94.00;;;-2.05;84.93;102050.38;5033019;28;20194;-74
2023/01/21 01:56:56;;;;;;;49.67;30.67;;;-0.90;94.10;;;-2.06;84.87;102054.78;5032972;28;20211;-73
2023/01/21 01:59:26;;;;;;;45.27;29.53;;;-1.00;94.10;;;-2.06;84.44;102056.56;5033299;28;20518;-72
2023/01/21 02:01:55;;;;;;;45.90;28.90;;;-1.00;94.30;;;-1.99;84.52;102060.69;5033697;28;20214;-72
2023/01/21 02:04:31;;;;;;;43.17;28.63;;;-0.90;94.30;;;-1.99;84.66;102057.22;5032225;28;20392;-73
2023/01/21 02:07:00;;;;;;;46.93;29.60;;;-0.90;94.30;;;-1.92;84.63;102072.72;5032102;28;20203;-73
2023/01/21 02:09:30;;;;;;;46.90;29.67;;;-0.80;94.30;;;-1.90;84.17;102070.91;5032380;28;20218;-73
2023/01/21 02:12:00;;;;;;;44.37;28.90;;;-0.70;94.30;;;-1.85;85.00;102079.47;5032105;28;20210;-72
2023/01/21 02:14:30;;;;;;;43.90;28.23;;;-0.70;94.20;;;-1.87;85.03;102078.66;5032530;28;20203;-73
2023/01/21 02:17:20;;;;;;;45.30;29.80;;;-0.80;94.20;;;-1.87;84.95;102081.28;5031611;28;20210;-73
2023/01/21 02:20:40;;;;;;;43.63;28.23;;;-0.70;94.40;;;-1.82;85.05;102084.66;5031705;28;20238;-72
2023/01/21 02:23:19;;;;;;;44.53;28.10;;;-0.70;94.50;;;-1.78;84.95;102086.25;5031846;28;20206;-73
2023/01/21 02:26:41;;;;;;;46.83;29.10;;;-0.60;94.30;;;-1.79;84.92;102094.19;5031853;28;20213;-72
2023/01/21 02:29:57;;;;;;;44.13;27.17;;;-0.60;94.40;;;-1.82;85.29;102095.16;5023120;28;20222;-72
2023/01/21 02:33:13;;;;;;;41.13;26.47;;;-0.70;94.50;;;-1.77;84.90;102101.09;5032592;28;20245;-73
2023/01/21 02:35:47;;;;;;;44.43;27.97;;;-0.60;94.60;;;-1.76;84.95;102100.19;5031819;28;20199;-73
2023/01/21 02:38:29;;;;;;;44.83;28.23;;;-0.60;94.50;;;-1.79;85.85;102105.53;5031976;28;20288;-73
2023/01/21 02:41:11;;;;;;;43.20;26.53;;;-0.70;94.50;;;-1.84;85.52;102101.31;5031720;28;20214;-73
2023/01/21 02:43:50;;;;;;;40.13;26.47;;;-0.70;94.60;;;-1.79;85.76;102108.16;5031435;28;20222;-73
2023/01/21 02:46:27;;;;;;;41.53;26.03;;;-0.60;94.80;;;-1.75;85.75;102108.94;5031502;28;20297;-73
2023/01/21 02:49:03;;;;;;;51.93;28.13;;;-0.60;94.70;;;-1.81;86.27;102104.72;5031627;28;20302;-73
2023/01/21 02:51:31;;;;;;;45.07;27.30;;;-0.60;94.80;;;-1.79;85.71;102105.53;5031439;28;20213;-73
2023/01/21 02:53:59;;;;;;;42.30;27.63;;;-0.70;94.90;;;-1.78;85.64;102107.25;5031080;28;20713;-73
2023/01/21 02:56:28;;;;;;;43.93;26.10;;;-0.60;94.80;;;-1.74;85.80;102113.25;5030923;28;20214;-73
2023/01/21 02:59:01;;;;;;;44.20;27.03;;;-0.60;95.00;;;-1.69;86.00;102116.59;5031321;28;20230;-74
2023/01/21 03:01:45;;;;;;;42.20;26.20;;;-0.50;94.90;;;-1.66;85.48;102112.13;5031314;28;20623;-73
2023/01/21 03:04:41;;;;;;;41.73;24.83;;;-0.50;94.80;;;-1.62;86.19;102115.50;5031509;28;20195;-73
2023/01/21 03:07:21;;;;;;;41.23;24.40;;;-0.50;94.80;;;-1.59;85.63;102112.78;5031090;28;20210;-73
2023/01/21 03:09:49;;;;;;;46.10;25.50;;;-0.40;94.80;;;-1.58;86.03;102123.25;5031126;28;20223;-73
2023/01/21 03:12:38;;;;;;;40.70;25.30;;;-0.40;94.80;;;-1.56;86.34;102118.78;5031166;28;20207;-73
2023/01/21 03:18:06;;;;;;;39.90;23.47;;;-0.40;94.80;;;-1.49;86.16;102126.47;5030718;28;20713;-73
2023/01/21 03:20:44;;;;;;;41.70;24.63;;;-0.30;94.70;;;-1.49;85.37;102134.34;5030798;28;20595;-73
2023/01/21 03:23:18;;;;;;;41.20;25.57;;;-0.30;94.70;;;-1.51;85.32;102133.53;5030624;28;20209;-72
2023/01/21 03:25:50;;;;;;;41.47;26.17;;;-0.40;94.60;;;-1.55;85.70;102131.00;5030540;28;20210;-72
2023/01/21 03:28:26;;;;;;;38.70;24.70;;;-0.40;94.80;;;-1.52;86.32;102129.19;5030951;28;20314;-72
2023/01/21 03:31:02;;;;;;;40.70;25.27;;;-0.40;94.80;;;-1.50;85.96;102128.22;5030810;28;20203;-73
2023/01/21 03:33:36;;;;;;;41.27;25.20;;;-0.30;94.90;;;-1.48;85.85;102136.06;5030260;28;20612;-73
2023/01/21 03:36:18;;;;;;;42.30;25.30;;;-0.30;94.90;;;-1.50;86.31;102128.22;5030644;28;20255;-73
2023/01/21 03:38:53;;;;;;;40.80;25.20;;;-0.30;94.90;;;-1.47;85.87;102128.13;5030562;28;20707;-72
2023/01/21 03:41:30;;;;;;;39.83;24.17;;;-0.30;95.00;;;-1.46;86.46;102123.72;5030809;28;20218;-73
2023/01/21 03:43:59;;;;;;;38.80;25.50;;;-0.30;94.90;;;-1.44;86.35;102127.19;5030590;28;20210;-73
2023/01/21 03:46:36;;;;;;;41.63;25.17;;;-0.30;94.90;;;-1.42;86.82;102127.97;5030105;28;20250;-73
2023/01/21 03:49:13;;;;;;;41.07;26.37;;;-0.20;95.10;;;-1.49;86.04;102118.56;5030318;28;20603;-73
2023/01/21 03:51:50;;;;;;;48.43;28.73;;;-0.30;94.90;;;-1.48;86.15;102126.41;5030265;28;20229;-74
2023/01/21 03:54:18;;;;;;;40.67;26.70;;;-0.30;95.30;;;-1.46;86.30;102123.72;5030619;28;20190;-73
2023/01/21 03:56:46;;;;;;;45.87;27.90;;;-0.30;95.30;;;-1.49;87.30;102126.47;5029916;28;20817;-73
2023/01/21 03:59:14;;;;;;;46.20;28.10;;;-0.40;95.70;;;-1.46;87.62;102131.59;5030133;28;20230;-74
2023/01/21 04:01:43;;;;;;;42.53;26.20;;;-0.30;95.50;;;-1.47;87.53;102132.53;5030105;28;20210;-73
2023/01/21 04:04:11;;;;;;;43.63;26.53;;;-0.30;95.40;;;-1.45;87.04;102133.34;5030205;28;20214;-74
2023/01/21 04:06:39;;;;;;;38.17;24.53;;;-0.30;95.40;;;-1.42;87.08;102126.22;5030084;28;20576;-74
2023/01/21 04:09:11;;;;;;;44.00;25.00;;;-0.30;95.40;;;-1.39;86.67;102130.50;5029048;28;20238;-74
2023/01/21 04:11:39;;;;;;;42.17;26.13;;;-0.30;95.20;;;-1.40;87.05;102132.25;5029986;28;20187;-73
2023/01/21 04:14:07;;;;;;;40.13;25.50;;;-0.20;95.20;;;-1.40;86.92;102132.25;5030202;28;20206;-73
2023/01/21 04:16:36;;;;;;;41.77;25.73;;;-0.20;95.30;;;-1.36;86.13;102136.50;5030013;28;20561;-73
2023/01/21 04:19:04;;;;;;;46.20;27.27;;;-0.20;95.20;;;-1.35;87.05;102138.25;5029721;28;20288;-74
2023/01/21 04:21:32;;;;;;;42.30;27.37;;;-0.20;95.20;;;-1.42;87.51;102135.84;5029552;28;20718;-73
2023/01/21 04:24:00;;;;;;;40.27;26.07;;;-0.30;95.30;;;-1.39;86.89;102146.25;5030161;28;20206;-73
2023/01/21 04:26:30;;;;;;;43.30;26.77;;;-0.30;95.50;;;-1.38;87.39;102146.22;5029932;28;20207;-73
2023/01/21 04:28:58;;;;;;;40.87;26.60;;;-0.20;95.40;;;-1.34;86.82;102146.97;5030114;28;20227;-73
2023/01/21 04:31:26;;;;;;;42.73;25.87;;;-0.20;95.40;;;-1.33;86.76;102135.53;5030079;28;20202;-74
2023/01/21 04:33:54;;;;;;;42.17;26.47;;;-0.10;95.40;;;-1.34;87.03;102141.72;5029699;28;20211;-73
2023/01/21 04:36:22;;;;;;;42.63;27.27;;;-0.20;95.50;;;-1.33;86.32;102159.19;5030222;28;20300;-73
2023/01/21 04:38:50;;;;;;;42.80;25.67;;;-0.20;95.40;;;-1.32;86.84;102147.78;5030361;28;20231;-74
2023/01/21 04:41:18;;;;;;;36.83;25.03;;;-0.20;95.50;;;-1.31;86.25;102149.50;5030157;28;20277;-73
2023/01/21 04:43:48;;;;;;;39.97;25.43;;;-0.10;95.40;;;-1.29;87.26;102163.44;5029382;28;20217;-73
2023/01/21 04:46:16;;;;;;;41.30;26.67;;;-0.20;95.30;;;-1.30;87.23;102164.38;5029703;28;20207;-73
2023/01/21 04:48:44;;;;;;;43.47;26.67;;;-0.20;95.40;;;-1.30;87.74;102151.22;5029917;28;20254;-73
2023/01/21 04:51:12;;;;;;;39.70;25.47;;;-0.10;95.40;;;-1.29;86.71;102164.31;5029688;28;20207;-73
2023/01/21 04:53:40;;;;;;;40.80;25.13;;;-0.10;95.30;;;-1.34;86.53;102160.13;5029440;28;20216;-73
2023/01/21 04:56:08;;;;;;;41.93;25.37;;;-0.20;95.20;;;-1.33;87.25;102161.81;5028834;28;20209;-73
2023/01/21 04:58:37;;;;;;;42.00;26.00;;;-0.10;95.40;;;-1.29;87.40;102168.69;5029476;28;20235;-73
2023/01/21 05:01:06;;;;;;;44.37;27.13;;;-0.10;95.40;;;-1.33;87.44;102167.06;5029285;28;20289;-72
2023/01/21 05:03:34;;;;;;;43.97;26.00;;;-0.10;95.60;;;-1.39;88.27;102169.91;5029638;28;20230;-73
2023/01/21 05:06:03;;;;;;;45.03;27.37;;;-0.20;95.70;;;-1.38;88.34;102167.25;5029048;28;20207;-73
2023/01/21 05:08:31;;;;;;;40.40;26.20;;;-0.20;95.80;;;-1.35;87.22;102172.38;5029075;28;20223;-73
2023/01/21 05:10:59;;;;;;;43.83;25.93;;;-0.20;95.70;;;-1.31;87.87;102175.78;5029150;28;20581;-73
2023/01/21 05:13:27;;;;;;;40.40;26.13;;;-0.10;95.70;;;-1.31;87.43;102171.38;5029450;28;20383;-73
2023/01/21 05:15:56;;;;;;;43.30;26.70;;;-0.20;95.50;;;-1.34;87.32;102165.38;5029018;28;20210;-73
2023/01/21 05:18:25;;;;;;;43.60;25.90;;;-0.20;95.60;;;-1.34;88.04;102175.88;5029353;28;20226;-73
2023/01/21 05:20:54;;;;;;;41.70;26.37;;;-0.20;95.70;;;-1.30;87.06;102182.75;5032508;28;20324;-73
2023/01/21 05:23:22;;;;;;;42.40;26.20;;;-0.10;95.60;;;-1.32;87.72;102174.91;5033295;28;20678;-73
2023/01/21 05:25:50;;;;;;;42.83;26.27;;;-0.10;95.60;;;-1.30;87.74;102177.50;5033171;28;20207;-73
2023/01/21 05:28:18;;;;;;;43.53;26.10;;;-0.10;95.60;;;-1.30;87.70;102183.59;5033339;28;20230;-73
2023/01/21 05:30:46;;;;;;;43.23;26.20;;;-0.20;95.70;;;-1.27;87.71;102193.16;5032900;28;20553;-73
2023/01/21 05:33:15;;;;;;;38.93;24.20;;;-0.10;95.70;;;-1.25;87.95;102192.19;5032976;28;20217;-73
2023/01/21 05:35:44;;;;;;;40.80;25.27;;;-0.10;95.70;;;-1.24;87.76;102195.69;5033053;28;20245;-73
2023/01/21 05:38:12;;;;;;;41.03;25.77;;;-0.10;95.60;;;-1.25;88.03;102188.72;5033402;28;20210;-73
2023/01/21 05:40:40;;;;;;;41.03;25.37;;;-0.10;95.50;;;-1.25;87.47;102192.19;5033029;28;20230;-74
2023/01/21 05:43:08;;;;;;;44.07;27.00;;;-0.10;95.50;;;-1.25;87.50;102196.59;5032642;28;20760;-73
2023/01/21 05:45:36;;;;;;;40.70;25.90;;;-0.10;95.60;;;-1.29;87.34;102205.47;5032749;28;20218;-73
2023/01/21 05:48:05;;;;;;;46.60;26.80;;;-0.10;95.70;;;-1.32;87.28;102202.94;5028848;28;20203;-73
2023/01/21 05:50:33;;;;;;;38.30;25.07;;;-0.20;95.80;;;-1.28;87.44;102201.94;5031234;28;20207;-73
2023/01/21 05:53:03;;;;;;;39.60;26.30;;;-0.10;95.90;;;-1.28;88.14;102204.56;5032748;28;20207;-73
2023/01/21 05:55:31;;;;;;;42.97;24.93;;;-0.10;95.90;;;-1.26;88.08;102208.00;5032155;28;20211;-73
2023/01/21 05:58:00;;;;;;;40.17;26.10;;;-0.10;95.90;;;-1.24;87.71;102208.81;5032390;28;20214;-73
2023/01/21 06:00:28;;;;;;;43.23;26.27;;;-0.10;95.80;;;-1.24;87.87;102209.69;5032219;28;20226;-73
2023/01/21 06:02:56;;;;;;;47.57;26.13;;;-0.10;95.70;;;-1.22;86.83;102207.00;5032082;28;20581;-74
2023/01/21 06:05:24;;;;;;;39.50;24.50;;;-0.10;95.70;;;-1.23;87.99;102211.38;5032380;28;20206;-73
2023/01/21 06:07:52;;;;;;;43.00;26.27;;;0.00;95.70;;;-1.24;88.07;102212.31;5032239;28;20213;-73
2023/01/21 06:10:22;;;;;;;37.50;24.27;;;-0.10;95.70;;;-1.19;88.16;102222.66;5032082;28;20226;-73
2023/01/21 06:12:51;;;;;;;39.63;25.80;;;0.00;95.80;;;-1.19;87.02;102223.53;5032150;28;20214;-73
2023/01/21 06:15:20;;;;;;;41.97;25.77;;;0.00;95.70;;;-1.20;87.51;102231.47;5032049;28;20214;-73
2023/01/21 06:17:48;;;;;;;38.60;25.13;;;0.00;95.60;;;-1.22;87.84;102223.63;5031771;28;20558;-74
2023/01/21 06:20:16;;;;;;;39.77;25.93;;;0.00;95.90;;;-1.19;88.28;102233.16;5031704;28;20577;-73
2023/01/21 06:22:45;;;;;;;39.13;24.67;;;0.00;95.90;;;-1.18;87.87;102233.13;5031953;28;20211;-73
2023/01/21 06:25:13;;;;;;;43.97;27.23;;;0.00;95.70;;;-1.17;87.21;102240.13;5032029;28;20211;-73
2023/01/21 06:27:42;;;;;;;39.07;25.03;;;0.00;95.60;;;-1.14;87.21;102249.66;5031819;28;20210;-73
2023/01/21 06:30:11;;;;;;;39.60;25.20;;;0.00;95.60;;;-1.14;87.92;102257.53;5032078;28;20357;-73
2023/01/21 06:32:39;;;;;;;42.67;24.50;;;0.00;95.50;;;-1.14;86.81;102262.81;5031259;28;20203;-73
2023/01/21 06:35:09;;;;;;;40.77;25.10;;;0.00;95.60;;;-1.16;87.76;102277.75;5031423;28;20210;-74
2023/01/21 06:37:37;;;;;;;37.67;24.00;;;0.00;95.60;;;-1.16;87.52;102280.38;5031363;28;20741;-73
2023/01/21 06:40:07;;;;;;;36.37;23.93;;;0.00;95.60;;;-1.15;86.82;102287.34;5031385;28;20642;-74
2023/01/21 06:42:35;;;;;;;36.13;22.90;;;0.00;95.60;;;-1.16;86.57;102290.88;5031725;28;20265;-73
2023/01/21 06:45:06;;;;;;;37.20;23.53;;;0.00;95.40;;;-1.17;86.71;102291.81;5031559;28;20667;-73
2023/01/21 06:47:34;;;;;;;39.53;24.63;;;0.00;95.60;;;-1.16;87.40;102291.75;5025347;28;20211;-73
2023/01/21 06:50:02;;;;;;;37.40;24.73;;;0.00;95.50;;;-1.16;87.04;102301.41;5031632;28;20242;-73
2023/01/21 06:52:30;;;;;;;38.67;23.60;;;0.00;95.50;;;-1.18;87.45;102303.22;5031085;28;20618;-73
2023/01/21 06:54:59;;;;;;;36.80;22.27;;;0.00;95.60;;;-1.17;87.18;102299.69;5031702;28;20269;-73
2023/01/21 06:57:27;;;;;;;39.33;23.30;;;0.00;95.60;;;-1.15;86.64;102308.38;5031302;28;20222;-73
2023/01/21 06:59:55;;;;;;;39.63;22.70;;;0.00;95.50;;;-1.16;86.99;102311.91;5031236;28;20230;-72
2023/01/21 07:02:24;;;;;;;36.83;22.63;;;0.00;95.50;;;-1.18;87.77;102313.72;5031708;28;20229;-73
2023/01/21 07:04:52;;;;;;;42.77;24.07;;;0.00;95.60;;;-1.17;86.67;102313.69;5030926;28;20219;-73
2023/01/21 07:07:21;;;;;;;38.77;24.47;;;0.00;96.00;;;-1.18;87.77;102319.00;5031126;28;20230;-73
2023/01/21 07:09:49;;;;;;;38.93;22.87;;;0.00;95.60;;;-1.19;87.68;102319.88;5031221;28;20231;-73
2023/01/21 07:12:17;;;;;;;37.33;22.83;;;0.00;95.60;;;-1.19;87.49;102320.75;5030974;28;20675;-73
2023/01/21 07:14:45;;;;;;;39.17;23.53;;;0.00;95.60;;;-1.15;87.69;102324.16;5031508;28;20201;-73
2023/01/21 07:17:13;;;;;;;37.37;23.57;;;0.00;95.60;;;-1.13;87.43;102320.56;5030649;28;20219;-73
2023/01/21 07:19:42;;;;;;;37.63;23.87;;;0.10;95.60;;;-1.10;87.36;102330.13;5031397;28;20234;-73
2023/01/21 07:22:10;;;;;;;36.63;23.57;;;0.10;95.50;;;-1.12;87.67;102322.28;5031311;28;20222;-74
2023/01/21 07:24:39;;;;;;;37.50;23.33;;;0.10;95.50;;;-1.10;87.07;102322.25;5030994;28;20229;-73
2023/01/21 07:27:07;;;;;;;38.47;23.37;;;0.10;95.50;;;-1.07;86.89;102332.66;5030928;28;20211;-73
2023/01/21 07:29:35;;;;;;;37.07;23.00;;;0.10;95.40;;;-1.07;86.41;102330.91;5030823;28;20234;-73
2023/01/21 07:32:03;;;;;;;37.17;23.57;;;0.10;95.40;;;-1.06;86.95;102335.22;5031181;28;20207;-73
2023/01/21 07:34:32;;;;;;;35.10;22.47;;;0.10;95.40;;;-1.04;86.97;102338.69;5030588;28;20293;-73
2023/01/21 07:37:01;;;;;;;38.17;22.93;;;0.10;95.40;;;-1.03;86.59;102342.19;5030426;28;20577;-73
2023/01/21 07:39:29;;;;;;;36.27;22.70;;;0.20;95.40;;;-1.00;86.13;102336.81;5030442;28;20231;-73
2023/01/21 07:41:57;;;;;;;37.67;22.87;;;0.20;95.40;;;-0.99;86.44;102337.69;5030274;28;20726;-73
2023/01/21 07:44:28;;;;;;;40.80;24.27;;;0.20;95.30;;;-1.02;87.55;102346.50;5030545;28;20198;-73
2023/01/21 07:46:56;;;;;;;36.80;23.23;;;0.10;95.50;;;-1.01;87.18;102345.63;5030076;28;20198;-73
2023/01/21 07:49:24;;;;;;;39.77;24.00;;;0.20;95.40;;;-0.99;86.42;102351.66;5030584;28;20252;-73
2023/01/21 07:51:57;;;;;;;33.70;22.17;;;0.20;95.40;;;-0.97;87.07;102349.00;5030451;28;20199;-73
2023/01/21 07:54:26;;;;;;;36.60;22.53;;;0.20;95.40;;;-0.98;86.36;102350.78;5030612;28;20570;-74
2023/01/21 07:56:55;;;;;;;40.60;22.17;;;0.20;95.40;;;-0.96;87.17;102351.59;5030218;28;20210;-73
2023/01/21 07:59:23;;;;;;;34.77;22.07;;;0.20;95.30;;;-0.95;86.05;102361.19;5030366;28;20226;-73
2023/01/21 08:01:51;;;;;;;36.47;23.53;;;0.20;95.20;;;-0.96;87.57;102363.88;5029719;28;20222;-73
2023/01/21 08:04:19;;;;;;;38.90;23.73;;;0.20;95.70;;;-0.96;86.31;102367.38;5029963;28;20769;-73
2023/01/21 08:06:49;;;;;;;36.53;23.50;;;0.20;95.40;;;-0.95;86.42;102374.31;5029657;28;20234;-73
2023/01/21 08:09:17;;;;;;;38.00;24.17;;;0.20;95.40;;;-0.95;87.40;102371.69;5029988;28;20231;-73
2023/01/21 08:11:47;;;;;;;38.50;23.83;;;0.20;95.40;;;-0.96;87.69;102370.00;5029902;28;20675;-74
2023/01/21 08:14:15;;;;;;;35.77;23.27;;;0.20;95.40;;;-0.94;87.04;102372.56;5029952;28;20214;-73
2023/01/21 08:16:43;;;;;;;37.87;24.00;;;0.20;95.50;;;-0.94;87.46;102376.06;5029651;28;20628;-73
2023/01/21 08:19:11;;;;;;;37.23;23.60;;;0.20;95.50;;;-0.97;87.77;102378.78;5029541;28;20227;-73
2023/01/21 08:21:41;;;;;;;37.27;23.90;;;0.20;95.40;;;-0.95;87.88;102382.22;5029414;28;20237;-73
2023/01/21 08:24:10;;;;;;;36.23;22.77;;;0.20;95.50;;;-0.97;86.81;102386.66;5029775;28;20215;-72
2023/01/21 08:26:38;;;;;;;37.80;22.93;;;0.20;95.50;;;-0.95;87.49;102389.25;5029070;28;20215;-73
2023/01/21 08:29:08;;;;;;;41.70;25.13;;;0.20;95.60;;;-0.96;87.14;102392.78;5029861;28;20235;-73
2023/01/21 08:31:36;;;;;;;37.13;23.10;;;0.20;95.50;;;-0.96;87.08;102400.69;5029348;28;20210;-73
2023/01/21 08:34:04;;;;;;;37.93;24.10;;;0.20;95.60;;;-0.94;87.86;102401.47;5029464;28;20234;-73
2023/01/21 08:36:32;;;;;;;41.60;23.47;;;0.20;95.60;;;-0.93;86.76;102403.22;5029580;28;20213;-73
2023/01/21 08:39:02;;;;;;;38.20;23.70;;;0.20;95.60;;;-0.92;87.63;102400.53;5028572;28;20230;-73
2023/01/21 08:41:31;;;;;;;36.90;23.67;;;0.20;95.60;;;-0.90;86.64;102396.09;5028722;28;20627;-73
2023/01/21 08:43:59;;;;;;;38.03;23.80;;;0.30;95.60;;;-0.88;87.15;102404.78;5029359;28;20210;-73
2023/01/21 08:46:28;;;;;;;41.30;24.13;;;0.30;95.60;;;-0.87;86.48;102398.63;5029092;28;20880;-73
2023/01/21 08:48:56;;;;;;;36.47;22.73;;;0.30;95.50;;;-0.85;87.07;102402.06;5029471;28;20311;-73
2023/01/21 08:51:24;;;;;;;40.50;24.50;;;0.30;95.60;;;-0.89;87.63;102418.81;5029443;28;20213;-73
2023/01/21 08:53:53;;;;;;;40.90;24.40;;;0.30;95.50;;;-0.91;87.39;102422.41;5028738;28;20207;-73
2023/01/21 08:56:21;;;;;;;40.47;24.20;;;0.30;95.70;;;-0.89;88.11;102420.63;5028629;28;20221;-73
2023/01/21 08:58:55;;;;;;;37.97;23.27;;;0.30;95.80;;;-0.90;87.07;102409.25;5028845;28;20235;-73
2023/01/21 09:01:25;;;;;;;41.40;24.00;;;0.30;95.70;;;-0.86;87.65;102408.25;5029201;28;20714;-73
2023/01/21 09:03:59;;;;;;;42.67;24.63;;;0.30;95.80;;;-0.84;87.78;102414.31;5029060;28;20233;-73
2023/01/21 09:06:29;;;;;;;39.53;24.40;;;0.30;95.60;;;-0.82;87.45;102409.84;5028725;28;20209;-73
2023/01/21 09:08:58;;;;;;;40.30;24.23;;;0.30;95.60;;;-0.80;86.95;102426.47;5029141;28;20233;-74
2023/01/21 09:11:29;;;;;;;42.03;24.03;;;0.40;95.60;;;-0.78;88.07;102424.63;5027183;28;20611;-74
2023/01/21 09:14:02;;;;;;;39.13;23.87;;;0.40;95.60;;;-0.75;86.65;102431.56;5029137;28;20210;-74
2023/01/21 09:16:31;;;;;;;37.10;23.40;;;0.40;95.60;;;-0.72;86.79;102418.34;5028676;28;20260;-73
2023/01/21 09:19:01;;;;;;;37.47;23.40;;;0.40;95.80;;;-0.72;86.98;102424.44;5028395;28;20226;-74
2023/01/21 09:21:30;;;;;;;35.87;23.23;;;0.50;95.50;;;-0.69;86.77;102420.88;5025049;28;20682;-74
2023/01/21 09:23:58;;;;;;;36.60;22.73;;;0.50;95.50;;;-0.68;86.71;102419.94;5024619;28;20284;-74
2023/01/21 09:26:26;;;;;;;41.13;23.50;;;0.50;95.50;;;-0.67;87.20;102417.28;5028550;28;20226;-74
2023/01/21 09:28:58;;;;;;;36.63;22.33;;;0.50;95.50;;;-0.70;87.30;102417.38;5028902;28;20229;-73
2023/01/21 09:31:29;;;;;;;36.97;22.83;;;0.50;95.60;;;-0.72;87.69;102419.16;5028830;28;20210;-74
2023/01/21 09:34:02;;;;;;;35.43;22.10;;;0.40;95.60;;;-0.68;87.67;102420.81;5028224;28;20207;-76
2023/01/21 09:36:33;;;;;;;39.80;23.17;;;0.50;95.50;;;-0.70;87.75;102421.75;5028471;28;20215;-74
2023/01/21 09:39:01;;;;;;;34.33;20.93;;;0.50;95.50;;;-0.65;87.27;102433.84;5028672;28;20239;-74
2023/01/21 09:41:37;;;;;;;39.50;22.40;;;0.50;95.50;;;-0.66;87.40;102423.41;5028275;28;20856;-73
2023/01/21 09:44:16;;;;;;;35.87;22.27;;;0.50;95.50;;;-0.63;87.46;102428.56;5028687;28;20218;-74
2023/01/21 09:46:53;;;;;;;35.13;21.73;;;0.50;95.50;;;-0.62;87.31;102425.88;5028617;28;20191;-75
2023/01/21 09:49:27;;;;;;;37.17;22.53;;;0.60;95.60;;;-0.64;87.11;102432.09;5029435;28;20250;-74
2023/01/21 09:52:08;;;;;;;35.33;22.13;;;0.50;95.50;;;-0.63;87.55;102437.31;5029187;28;20240;-74
2023/01/21 09:54:38;;;;;;;35.93;22.50;;;0.50;95.50;;;-0.62;87.28;102436.38;5028646;28;20203;-75
2023/01/21 09:58:03;;;;;;;36.53;22.83;;;0.50;95.50;;;-0.63;87.97;102447.84;5028843;28;20286;-75
2023/01/21 10:00:40;;;;;;;34.67;20.87;;;0.50;95.60;;;-0.61;87.79;102440.75;5028264;28;20210;-74
2023/01/21 10:03:24;;;;;;;33.70;21.23;;;0.50;95.50;;;-0.59;87.48;102436.31;5028540;28;20558;-73
2023/01/21 10:06:12;;;;;;;33.77;21.60;;;0.60;95.40;;;-0.57;87.65;102445.00;5028179;28;20199;-74
2023/01/21 10:08:59;;;;;;;37.53;22.73;;;0.60;95.50;;;-0.56;87.94;102440.63;5032063;28;20254;-74
2023/01/21 10:11:47;;;;;;;32.77;21.03;;;0.60;95.40;;;-0.52;87.25;102445.75;5031940;28;20183;-74
2023/01/21 10:14:47;;;;;;;34.00;20.87;;;0.60;95.40;;;-0.49;86.37;102441.28;5032149;28;20800;-74
2023/01/21 10:17:27;;;;;;;36.70;21.33;;;0.70;95.40;;;-0.48;87.36;102449.13;5031884;28;20236;-74
2023/01/21 10:20:06;;;;;;;30.57;20.33;;;0.70;95.30;;;-0.43;87.65;102446.34;5032484;28;20233;-73
2023/01/21 10:22:35;;;;;;;33.67;20.93;;;0.70;95.40;;;-0.41;86.45;102444.53;5030159;28;21601;-73
2023/01/21 10:25:18;;;;;;;35.93;21.67;;;0.80;95.20;;;-0.36;86.69;102447.88;5026434;28;20215;-74